Pagrindinis puslapis
METAR-TAF:

METAR-TAF

Oro uostai :

Sarakhs, Iranas

platuma: 36-30-04N, ilguma: 061-03-54E, Aukštis: 288 m

Dabartinis oras

Ataskaita buvo paskelbta 29 minutes, ne 17:00 UTC
Ramus vėjas
Temperatūra 12°C
Drėgmė 82%
Slėgis 1012 hPa
Matomumas 10 km arba daugiau
Išsisklaidę debesys ne aukštis 3500 ft

METAR: OIMC 311700Z 00000KT 9999 SCT035 12/09 Q1012

Laikas: 21:59 (17:29 UTC)


TAF: trūkstamas

Orai ataskaitas ir orų prognozės (METAR, TAF).

turimą stotys yra geltonos ir raudonos taškus žemėlapyje.

Perkelti pele per norėdami pamatyti stoties vardą.

Tada spustelėkite, norėdami matyti oro stebėjimo ir prognozės.

Norėdami pakeisti žemėlapį: spustelėkite ant žalios mygtukų su juodo kryžiaus žemyn,; žalią mygtuką su brūkšneliu, jei norite nutolinti; arba žalių rodyklių gretimoms žemėlapius.


METAR-TAF: